createdAt,value
2023-02-19T00:01:48.249Z,17.17
2023-02-19T00:04:19.296Z,14.33
2023-02-19T00:06:50.115Z,16.00
2023-02-19T00:09:19.397Z,16.37
2023-02-19T00:11:47.834Z,16.60
2023-02-19T00:14:20.742Z,16.73
2023-02-19T00:16:50.529Z,16.67
2023-02-19T00:19:21.833Z,17.90
2023-02-19T00:21:52.654Z,18.17
2023-02-19T00:24:22.704Z,17.63
2023-02-19T00:26:50.132Z,15.87
2023-02-19T00:29:20.777Z,16.63
2023-02-19T00:31:48.023Z,15.57
2023-02-19T00:34:15.293Z,16.27
2023-02-19T00:36:44.622Z,16.00
2023-02-19T00:39:22.038Z,17.00
2023-02-19T00:41:53.410Z,16.37
2023-02-19T00:44:22.918Z,16.90
2023-02-19T00:46:49.869Z,17.77
2023-02-19T00:49:21.993Z,20.07
2023-02-19T00:51:51.027Z,17.60
2023-02-19T00:54:22.697Z,17.73
2023-02-19T00:56:50.412Z,17.67
2023-02-19T00:59:19.814Z,17.00
2023-02-19T01:01:46.835Z,20.80
2023-02-19T01:04:13.959Z,18.20
2023-02-19T01:06:41.378Z,17.93
2023-02-19T01:09:08.456Z,18.10
2023-02-19T01:11:38.141Z,17.33
2023-02-19T01:14:05.228Z,17.27
2023-02-19T01:16:32.739Z,17.10
2023-02-19T01:19:00.017Z,17.87
2023-02-19T01:21:29.176Z,17.53
2023-02-19T01:23:56.960Z,16.83
2023-02-19T01:26:32.321Z,17.13
2023-02-19T01:29:07.376Z,18.23
2023-02-19T01:31:38.890Z,18.17
2023-02-19T01:34:08.837Z,20.07
2023-02-19T01:36:37.315Z,18.50
2023-02-19T01:39:08.916Z,18.40
2023-02-19T01:41:39.472Z,19.47
2023-02-19T01:44:12.477Z,18.03
2023-02-19T01:46:42.321Z,19.10
2023-02-19T01:49:24.303Z,19.87
2023-02-19T01:52:21.234Z,19.43
2023-02-19T01:54:50.246Z,16.33
2023-02-19T01:57:28.457Z,16.90
2023-02-19T02:00:04.053Z,16.70
2023-02-19T02:02:33.391Z,17.07
2023-02-19T02:05:01.803Z,15.90
2023-02-19T02:07:47.488Z,17.13
2023-02-19T02:10:20.640Z,16.77
2023-02-19T02:12:50.165Z,15.70
2023-02-19T02:15:18.308Z,14.30
2023-02-19T02:17:53.279Z,14.63
2023-02-19T02:20:51.254Z,14.60
2023-02-19T02:24:12.548Z,15.03
2023-02-19T02:27:06.420Z,15.27
2023-02-19T02:30:01.112Z,14.97
2023-02-19T02:32:53.362Z,14.13
2023-02-19T02:35:33.742Z,15.47
2023-02-19T02:38:08.489Z,15.10
2023-02-19T02:40:37.996Z,13.97
2023-02-19T02:43:04.906Z,12.40
2023-02-19T02:45:40.007Z,8.50
2023-02-19T02:48:19.605Z,6.87
2023-02-19T02:51:26.548Z,9.47
2023-02-19T02:54:33.570Z,9.43
2023-02-19T02:57:03.930Z,9.60
2023-02-19T02:59:37.656Z,10.70
2023-02-19T03:02:25.171Z,10.47
2023-02-19T03:05:19.298Z,8.77
2023-02-19T03:08:10.648Z,9.27
2023-02-19T03:10:54.864Z,11.00
2023-02-19T03:14:00.617Z,11.20
2023-02-19T03:16:52.998Z,9.10
2023-02-19T03:19:24.315Z,8.57
2023-02-19T03:21:59.649Z,7.03
2023-02-19T03:24:55.045Z,5.70
2023-02-19T03:27:23.760Z,4.47
2023-02-19T03:29:57.658Z,3.90
2023-02-19T03:32:40.294Z,2.43
2023-02-19T03:35:16.338Z,3.83
2023-02-19T03:37:59.704Z,3.07
2023-02-19T03:40:31.308Z,2.67
2023-02-19T03:43:30.107Z,3.20
2023-02-19T03:46:11.897Z,3.73
2023-02-19T03:49:16.300Z,3.13
2023-02-19T03:51:55.045Z,3.10
2023-02-19T03:55:06.846Z,4.03
2023-02-19T03:57:43.498Z,2.93
2023-02-19T04:00:31.540Z,2.43
2023-02-19T04:03:31.681Z,2.60
2023-02-19T04:06:30.270Z,3.10
2023-02-19T04:09:01.494Z,2.70
2023-02-19T04:11:30.727Z,2.80
2023-02-19T04:14:29.605Z,2.30
2023-02-19T04:17:04.323Z,2.30
2023-02-19T04:19:35.902Z,2.37
2023-02-19T04:22:06.610Z,2.87
2023-02-19T04:24:49.038Z,2.03
2023-02-19T04:27:16.749Z,2.60
2023-02-19T04:29:44.357Z,2.40
2023-02-19T04:32:13.055Z,2.20
2023-02-19T04:34:40.719Z,2.40
2023-02-19T04:37:08.082Z,2.40
2023-02-19T04:39:35.480Z,2.50
2023-02-19T04:42:05.495Z,2.33
2023-02-19T04:44:34.631Z,2.70
2023-02-19T04:47:01.833Z,2.20
2023-02-19T04:49:29.004Z,2.37
2023-02-19T04:52:00.769Z,1.90
2023-02-19T04:54:29.860Z,1.60
2023-02-19T04:56:57.626Z,1.93
2023-02-19T04:59:27.527Z,2.00
2023-02-19T05:01:59.028Z,2.00
2023-02-19T05:04:26.458Z,1.63
2023-02-19T05:06:55.596Z,2.30
2023-02-19T05:09:22.531Z,2.70
2023-02-19T05:11:49.596Z,2.20
2023-02-19T05:14:17.305Z,2.50
2023-02-19T05:16:44.217Z,2.70
2023-02-19T05:19:14.593Z,2.70
2023-02-19T05:21:41.609Z,2.90
2023-02-19T05:24:12.070Z,2.70
2023-02-19T05:26:39.090Z,2.43
2023-02-19T05:29:06.110Z,2.30
2023-02-19T05:31:36.198Z,3.20
2023-02-19T05:34:03.433Z,2.10
2023-02-19T05:36:32.950Z,2.23
2023-02-19T05:39:02.411Z,2.20
2023-02-19T05:41:30.470Z,2.43
2023-02-19T05:43:58.447Z,2.60
2023-02-19T05:46:29.608Z,2.83
2023-02-19T05:48:58.334Z,2.40
2023-02-19T05:51:27.462Z,2.40
2023-02-19T05:53:55.736Z,2.73
2023-02-19T05:56:32.781Z,2.67
2023-02-19T05:59:03.950Z,2.70
2023-02-19T06:01:36.689Z,2.87
2023-02-19T06:04:03.864Z,2.27
2023-02-19T06:06:30.866Z,2.60
2023-02-19T06:08:58.198Z,3.00
2023-02-19T06:11:25.588Z,2.70
2023-02-19T06:13:52.526Z,2.70
2023-02-19T06:16:22.206Z,2.50
2023-02-19T06:18:49.745Z,2.23
2023-02-19T06:21:34.444Z,3.30
2023-02-19T06:24:11.356Z,2.77
2023-02-19T06:26:38.835Z,2.77
2023-02-19T06:29:05.703Z,2.30
2023-02-19T06:31:32.785Z,2.63
2023-02-19T06:34:03.767Z,1.93
2023-02-19T06:36:31.333Z,2.30
2023-02-19T06:39:02.347Z,3.40
2023-02-19T06:41:32.312Z,2.43
2023-02-19T06:43:59.213Z,2.57
2023-02-19T06:46:26.717Z,2.97
2023-02-19T06:48:53.727Z,2.50
2023-02-19T06:51:26.376Z,3.00
2023-02-19T06:53:53.747Z,2.80
2023-02-19T06:56:29.472Z,3.87
2023-02-19T06:59:05.008Z,3.43
2023-02-19T07:01:34.767Z,3.30
2023-02-19T07:04:04.754Z,3.30
2023-02-19T07:06:37.813Z,2.93
2023-02-19T07:09:06.890Z,3.40
2023-02-19T07:11:36.388Z,3.90
2023-02-19T07:14:07.668Z,3.53
2023-02-19T07:16:38.993Z,3.43
2023-02-19T07:19:08.196Z,3.77
2023-02-19T07:21:37.709Z,4.33
2023-02-19T07:24:05.820Z,3.83
2023-02-19T07:26:33.096Z,4.50
2023-02-19T07:29:00.753Z,4.20
2023-02-19T07:31:28.867Z,4.67
2023-02-19T07:33:56.251Z,3.30
2023-02-19T07:36:25.666Z,3.90
2023-02-19T07:38:59.774Z,3.87
2023-02-19T07:41:29.204Z,4.00
2023-02-19T07:43:56.212Z,4.63
2023-02-19T07:46:26.913Z,4.13
2023-02-19T07:48:55.870Z,2.90
2023-02-19T07:51:24.262Z,3.30
2023-02-19T07:53:52.022Z,2.63
2023-02-19T07:56:19.987Z,3.37
2023-02-19T07:58:49.100Z,3.00
2023-02-19T08:01:44.215Z,2.47
2023-02-19T08:04:14.555Z,2.90
2023-02-19T08:06:43.109Z,3.33
2023-02-19T08:09:10.845Z,2.60
2023-02-19T08:11:56.756Z,2.70
2023-02-19T08:14:30.495Z,3.20
2023-02-19T08:16:57.495Z,2.90
2023-02-19T08:19:26.913Z,2.57
2023-02-19T08:21:53.871Z,2.40
2023-02-19T08:24:20.794Z,2.73
2023-02-19T08:26:50.428Z,2.97
2023-02-19T08:29:17.370Z,2.27
2023-02-19T08:31:46.475Z,2.13
2023-02-19T08:34:13.493Z,3.30
2023-02-19T08:36:40.406Z,2.80
2023-02-19T08:39:07.360Z,3.50
2023-02-19T08:41:36.793Z,2.87
2023-02-19T08:44:06.307Z,2.40
2023-02-19T08:46:34.419Z,2.33
2023-02-19T08:49:01.480Z,3.13
2023-02-19T08:51:31.408Z,2.43
2023-02-19T08:53:58.294Z,2.37
2023-02-19T08:56:25.306Z,2.70
2023-02-19T08:58:54.635Z,2.87
2023-02-19T09:01:24.092Z,2.60
2023-02-19T09:03:53.542Z,2.30
2023-02-19T09:06:21.456Z,2.70
2023-02-19T09:08:51.347Z,3.33
2023-02-19T09:11:18.306Z,3.03
2023-02-19T09:13:45.424Z,2.30
2023-02-19T09:16:12.369Z,2.60
2023-02-19T09:18:39.702Z,2.23
2023-02-19T09:21:09.934Z,2.23
2023-02-19T09:23:39.781Z,2.40
2023-02-19T09:26:10.042Z,2.30
2023-02-19T09:28:41.784Z,2.00
2023-02-19T09:31:17.011Z,2.63
2023-02-19T09:33:48.589Z,2.00
2023-02-19T09:36:16.843Z,2.20
2023-02-19T09:38:48.692Z,2.27
2023-02-19T09:41:34.168Z,2.37
2023-02-19T09:44:09.271Z,2.40
2023-02-19T09:46:47.252Z,2.00
2023-02-19T09:49:17.494Z,2.40
2023-02-19T09:52:12.147Z,2.00
2023-02-19T09:54:40.679Z,2.00
2023-02-19T09:57:18.090Z,1.60
2023-02-19T09:59:57.147Z,1.80
2023-02-19T10:02:25.810Z,1.60
2023-02-19T10:04:53.804Z,2.37
2023-02-19T10:07:35.909Z,1.70
2023-02-19T10:10:14.718Z,1.80
2023-02-19T10:12:50.617Z,2.40
2023-02-19T10:15:57.788Z,2.60
2023-02-19T10:18:28.474Z,2.77
2023-02-19T10:21:01.340Z,2.20
2023-02-19T10:23:33.899Z,2.50
2023-02-19T10:26:01.120Z,1.80
2023-02-19T10:28:35.673Z,2.23
2023-02-19T10:31:11.870Z,1.50
2023-02-19T10:33:57.378Z,1.70
2023-02-19T10:36:33.671Z,2.00
2023-02-19T10:39:30.546Z,1.97
2023-02-19T10:41:58.802Z,2.13
2023-02-19T10:44:38.454Z,1.93
2023-02-19T10:47:15.967Z,1.77
2023-02-19T10:49:46.518Z,1.63
2023-02-19T10:52:24.385Z,1.87
2023-02-19T10:54:58.431Z,1.60
2023-02-19T10:57:34.191Z,2.03
2023-02-19T11:00:22.684Z,1.77
2023-02-19T11:03:16.287Z,1.57
2023-02-19T11:06:02.811Z,2.00
2023-02-19T11:08:31.003Z,1.53
2023-02-19T11:10:58.100Z,1.30
2023-02-19T11:13:39.797Z,1.13
2023-02-19T11:16:10.887Z,1.53
2023-02-19T11:18:39.248Z,1.57
2023-02-19T11:21:08.194Z,1.40
2023-02-19T11:23:44.485Z,1.27
2023-02-19T11:26:27.054Z,1.93
2023-02-19T11:29:02.889Z,1.67
2023-02-19T11:31:36.122Z,1.23
2023-02-19T11:34:21.326Z,2.70
2023-02-19T11:37:18.499Z,1.53
2023-02-19T11:39:51.268Z,1.40
2023-02-19T11:42:43.315Z,1.30
2023-02-19T11:45:22.614Z,1.03
2023-02-19T11:48:05.385Z,1.40
2023-02-19T11:50:46.502Z,1.33
2023-02-19T11:53:30.910Z,0.90
2023-02-19T11:56:19.291Z,1.37
2023-02-19T11:58:47.426Z,1.33
2023-02-19T12:01:26.834Z,1.00
2023-02-19T12:04:24.782Z,1.50
2023-02-19T12:07:23.071Z,1.50
2023-02-19T12:10:14.998Z,1.37
2023-02-19T12:13:25.365Z,1.23
2023-02-19T12:18:58.612Z,1.23
2023-02-19T12:21:39.985Z,1.00
2023-02-19T12:24:55.850Z,1.27
2023-02-19T12:27:46.801Z,1.37
2023-02-19T12:30:35.985Z,1.10
2023-02-19T12:33:25.087Z,1.27
2023-02-19T12:35:54.873Z,1.23
2023-02-19T12:38:35.403Z,1.57
2023-02-19T12:41:44.745Z,1.33
2023-02-19T12:44:18.725Z,1.17
2023-02-19T12:46:55.657Z,1.40
2023-02-19T12:49:46.872Z,1.67
2023-02-19T12:52:26.074Z,1.80
2023-02-19T12:55:03.509Z,2.67
2023-02-19T12:57:34.952Z,1.30
2023-02-19T13:00:13.846Z,1.30
2023-02-19T13:02:48.803Z,1.30
2023-02-19T13:05:39.883Z,1.10
2023-02-19T13:08:27.688Z,1.17
2023-02-19T13:11:03.473Z,1.43
2023-02-19T13:14:00.231Z,0.93
2023-02-19T13:16:33.495Z,1.10
2023-02-19T13:19:03.990Z,1.30
2023-02-19T13:21:53.336Z,1.30
2023-02-19T13:24:36.539Z,1.13
2023-02-19T13:27:21.412Z,1.10
2023-02-19T13:30:21.830Z,1.43
2023-02-19T13:33:27.072Z,2.93
2023-02-19T13:36:12.045Z,1.03
2023-02-19T13:38:45.837Z,1.50
2023-02-19T13:41:31.860Z,1.13
2023-02-19T13:44:17.937Z,1.40
2023-02-19T13:46:50.318Z,1.63
2023-02-19T13:49:31.713Z,1.20
2023-02-19T13:52:04.535Z,1.57
2023-02-19T13:54:40.259Z,1.30
2023-02-19T13:57:23.931Z,1.53
2023-02-19T13:59:52.537Z,1.30
2023-02-19T14:02:34.168Z,1.33
2023-02-19T14:05:13.346Z,1.53
2023-02-19T14:07:55.872Z,1.37
2023-02-19T14:10:57.976Z,1.03
2023-02-19T14:13:51.965Z,1.10
2023-02-19T14:17:08.089Z,1.03
2023-02-19T14:19:58.055Z,1.30
2023-02-19T14:22:52.579Z,1.20
2023-02-19T14:25:46.566Z,1.50
2023-02-19T14:28:21.293Z,1.13
2023-02-19T14:30:59.149Z,1.37
2023-02-19T14:33:36.123Z,1.53
2023-02-19T14:36:45.431Z,2.00
2023-02-19T14:39:37.895Z,0.93
2023-02-19T14:42:33.615Z,1.80
2023-02-19T14:45:06.459Z,1.20
2023-02-19T14:47:35.905Z,1.00
2023-02-19T14:50:27.417Z,1.10
2023-02-19T14:53:02.483Z,1.50
2023-02-19T14:55:42.929Z,1.10
2023-02-19T14:58:32.828Z,1.00
2023-02-19T15:01:00.195Z,1.57
2023-02-19T15:03:37.164Z,1.30
2023-02-19T15:06:12.179Z,0.97
2023-02-19T15:08:48.227Z,1.30
2023-02-19T15:11:27.210Z,1.53
2023-02-19T15:14:04.646Z,0.90
2023-02-19T15:16:36.376Z,1.37
2023-02-19T15:19:09.320Z,1.20
2023-02-19T15:21:45.165Z,1.03
2023-02-19T15:24:15.929Z,1.50
2023-02-19T15:26:48.305Z,1.67
2023-02-19T15:29:24.031Z,1.83
2023-02-19T15:31:52.336Z,1.27
2023-02-19T15:34:31.133Z,1.40
2023-02-19T15:37:07.074Z,1.60
2023-02-19T15:39:42.754Z,1.40
2023-02-19T15:42:17.554Z,1.23
2023-02-19T15:44:53.600Z,1.50
2023-02-19T15:47:27.731Z,1.20
2023-02-19T15:50:09.036Z,1.43
2023-02-19T15:52:36.035Z,1.23
2023-02-19T15:55:31.624Z,1.70
2023-02-19T15:58:20.472Z,1.53
2023-02-19T16:00:58.413Z,2.50
2023-02-19T16:03:27.857Z,1.80
2023-02-19T16:06:16.760Z,1.80
2023-02-19T16:09:05.789Z,1.80
2023-02-19T16:11:48.389Z,2.00
2023-02-19T16:14:37.399Z,2.23
2023-02-19T16:17:10.673Z,2.87
2023-02-19T16:19:52.920Z,1.93
2023-02-19T16:22:26.704Z,2.00
2023-02-19T16:25:05.931Z,2.50
2023-02-19T16:27:40.281Z,2.20
2023-02-19T16:30:14.994Z,2.50
2023-02-19T16:32:42.138Z,2.33
2023-02-19T16:35:42.399Z,2.00
2023-02-19T16:38:17.459Z,2.37
2023-02-19T16:40:56.273Z,2.00
2023-02-19T16:43:42.061Z,2.60
2023-02-19T16:46:15.246Z,2.50
2023-02-19T16:48:42.364Z,1.90
2023-02-19T16:51:18.193Z,2.17
2023-02-19T16:53:45.113Z,2.17
2023-02-19T16:56:18.863Z,2.37
2023-02-19T16:58:45.725Z,2.77
2023-02-19T17:01:15.466Z,3.57
2023-02-19T17:03:42.772Z,2.10
2023-02-19T17:06:11.141Z,2.00
2023-02-19T17:08:40.888Z,1.93
2023-02-19T17:11:16.123Z,1.90
2023-02-19T17:13:45.866Z,2.03
2023-02-19T17:16:27.309Z,1.63
2023-02-19T17:18:55.230Z,2.33
2023-02-19T17:21:28.256Z,2.33
2023-02-19T17:24:00.355Z,2.53
2023-02-19T17:26:34.293Z,3.00
2023-02-19T17:29:04.598Z,4.07
2023-02-19T17:31:32.259Z,3.17
2023-02-19T17:34:08.632Z,3.17
2023-02-19T17:36:35.683Z,3.40
2023-02-19T17:39:04.790Z,3.50
2023-02-19T17:41:31.839Z,2.87
2023-02-19T17:43:59.040Z,3.13
2023-02-19T17:46:27.485Z,2.87
2023-02-19T17:48:55.060Z,2.70
2023-02-19T17:51:26.568Z,2.87
2023-02-19T17:53:53.759Z,2.63
2023-02-19T17:56:26.236Z,2.23
2023-02-19T17:58:59.651Z,2.87
2023-02-19T18:01:29.353Z,2.10
2023-02-19T18:03:56.439Z,2.63
2023-02-19T18:06:23.613Z,2.90
2023-02-19T18:08:53.343Z,2.83
2023-02-19T18:11:24.031Z,3.70
2023-02-19T18:13:52.189Z,2.60
2023-02-19T18:16:19.884Z,2.80
2023-02-19T18:18:49.282Z,3.00
2023-02-19T18:21:16.259Z,2.80
2023-02-19T18:23:43.317Z,3.03
2023-02-19T18:26:11.430Z,3.30
2023-02-19T18:28:41.820Z,2.03
2023-02-19T18:31:14.842Z,2.90
2023-02-19T18:33:42.260Z,2.97
2023-02-19T18:36:12.862Z,3.50
2023-02-19T18:38:39.977Z,3.43
2023-02-19T18:41:14.844Z,3.13
2023-02-19T18:43:42.124Z,2.37
2023-02-19T18:46:10.472Z,2.77
2023-02-19T18:48:38.319Z,2.77
2023-02-19T18:51:08.127Z,2.60
2023-02-19T18:53:37.564Z,3.00
2023-02-19T18:56:09.075Z,2.33
2023-02-19T18:58:36.270Z,3.03
2023-02-19T19:01:03.358Z,2.50
2023-02-19T19:03:31.732Z,2.80
2023-02-19T19:06:01.210Z,2.20
2023-02-19T19:08:32.939Z,2.67
2023-02-19T19:10:59.869Z,2.20
2023-02-19T19:13:29.490Z,2.63
2023-02-19T19:15:56.416Z,2.20
2023-02-19T19:18:26.353Z,2.23
2023-02-19T19:20:56.585Z,2.43
2023-02-19T19:23:25.675Z,2.07
2023-02-19T19:25:57.027Z,2.20
2023-02-19T19:28:24.233Z,2.73
2023-02-19T19:30:51.304Z,2.23
2023-02-19T19:33:22.964Z,2.60
2023-02-19T19:35:50.050Z,2.27
2023-02-19T19:38:17.298Z,2.90
2023-02-19T19:40:45.236Z,2.40
2023-02-19T19:43:13.716Z,2.70
2023-02-19T19:45:41.981Z,2.90
2023-02-19T19:48:10.088Z,2.70
2023-02-19T19:50:40.800Z,2.17
2023-02-19T19:53:10.204Z,4.53
2023-02-19T19:55:37.260Z,2.73
2023-02-19T19:58:04.413Z,1.93
2023-02-19T20:00:32.547Z,2.23
2023-02-19T20:03:02.918Z,1.70
2023-02-19T20:05:33.221Z,2.40
2023-02-19T20:08:02.911Z,2.30
2023-02-19T20:10:30.297Z,1.73
2023-02-19T20:13:00.166Z,3.17
2023-02-19T20:15:35.091Z,2.00
2023-02-19T20:18:04.705Z,1.90
2023-02-19T20:20:34.293Z,2.10
2023-02-19T20:23:04.144Z,2.20
2023-02-19T20:25:31.507Z,1.50
2023-02-19T20:27:59.072Z,1.87
2023-02-19T20:30:28.398Z,2.20
2023-02-19T20:32:55.676Z,2.47
2023-02-19T20:35:26.467Z,2.63
2023-02-19T20:37:56.404Z,2.57
2023-02-19T20:40:33.595Z,2.10
2023-02-19T20:43:05.419Z,2.97
2023-02-19T20:45:35.127Z,3.17
2023-02-19T20:48:02.231Z,3.33
2023-02-19T20:50:29.410Z,2.70
2023-02-19T20:52:56.642Z,2.67
2023-02-19T20:55:26.446Z,3.07
2023-02-19T20:57:53.975Z,2.20
2023-02-19T21:00:21.824Z,2.33
2023-02-19T21:02:49.123Z,1.90
2023-02-19T21:05:18.019Z,2.37
2023-02-19T21:07:44.977Z,2.00
2023-02-19T21:10:17.127Z,2.00
2023-02-19T21:12:44.620Z,2.67
2023-02-19T21:15:11.848Z,2.10
2023-02-19T21:17:44.746Z,2.47
2023-02-19T21:20:15.138Z,2.60
2023-02-19T21:22:45.503Z,2.73
2023-02-19T21:25:20.202Z,2.63
2023-02-19T21:27:47.186Z,2.50
2023-02-19T21:30:16.707Z,2.60
2023-02-19T21:32:46.099Z,3.00
2023-02-19T21:35:15.227Z,1.93
2023-02-19T21:37:43.611Z,2.10
2023-02-19T21:40:12.817Z,2.60
2023-02-19T21:42:42.233Z,2.40
2023-02-19T21:45:09.452Z,2.53
2023-02-19T21:47:36.445Z,2.20
2023-02-19T21:50:06.184Z,2.83
2023-02-19T21:52:33.158Z,2.80
2023-02-19T21:55:00.062Z,2.70
2023-02-19T21:57:27.144Z,2.70
2023-02-19T21:59:54.584Z,2.73
2023-02-19T22:02:22.386Z,2.63
2023-02-19T22:04:54.169Z,3.20
2023-02-19T22:07:24.687Z,2.53
2023-02-19T22:09:52.448Z,2.80
2023-02-19T22:12:20.252Z,2.53
2023-02-19T22:14:49.558Z,2.30
2023-02-19T22:17:16.715Z,2.63
2023-02-19T22:19:45.700Z,2.50
2023-02-19T22:22:12.732Z,2.90
2023-02-19T22:24:39.588Z,3.00
2023-02-19T22:27:06.491Z,2.67
2023-02-19T22:29:34.030Z,2.60
2023-02-19T22:32:01.356Z,3.10
2023-02-19T22:34:28.569Z,2.50
2023-02-19T22:36:55.505Z,2.67
2023-02-19T22:39:26.159Z,2.90
2023-02-19T22:41:54.193Z,2.90
2023-02-19T22:44:21.089Z,3.20
2023-02-19T22:46:58.666Z,2.87
2023-02-19T22:49:25.544Z,2.97
2023-02-19T22:52:01.743Z,2.80
2023-02-19T22:54:28.831Z,2.70
2023-02-19T22:56:56.088Z,2.40
2023-02-19T22:59:23.420Z,3.40
2023-02-19T23:01:50.674Z,3.00
2023-02-19T23:04:17.803Z,3.10
2023-02-19T23:06:45.718Z,2.60
2023-02-19T23:09:26.112Z,3.43
2023-02-19T23:11:53.956Z,3.43
2023-02-19T23:14:22.698Z,2.90
2023-02-19T23:16:52.488Z,2.63
2023-02-19T23:19:21.612Z,2.80
2023-02-19T23:21:51.263Z,2.70
2023-02-19T23:24:18.877Z,2.63
2023-02-19T23:26:49.543Z,2.80
2023-02-19T23:29:23.798Z,2.60
2023-02-19T23:31:54.931Z,2.70
2023-02-19T23:34:26.783Z,2.57
2023-02-19T23:36:56.229Z,2.37
2023-02-19T23:39:26.052Z,2.23
2023-02-19T23:41:56.538Z,2.83
2023-02-19T23:44:25.555Z,3.10
2023-02-19T23:46:52.980Z,2.50
2023-02-19T23:49:23.108Z,3.10
2023-02-19T23:51:50.060Z,2.80
2023-02-19T23:54:17.059Z,2.30
2023-02-19T23:56:44.135Z,2.80
2023-02-19T23:59:12.039Z,2.77
